Time;durP1;ratioP1;P1;durP2;ratioP2;P2;SDS_P1;SDS_P2;PMS_P1;PMS_P2;Temp;Humidity;BMP_temperature;BMP_pressure;BME280_temperature;BME280_humidity;BME280_pressure;Samples;Min_cycle;Max_cycle;Signal;HPM_P1;HPM_P2
2022/05/09 00:01:57;;;;;;;;;;;;;;;9.19;60.85;101593.73;85654;1335;22466;-75
2022/05/09 00:04:02;;;;;;;;;;;;;;;9.16;60.95;101595.15;85555;1339;22443;-74
2022/05/09 00:06:10;;;;;;;;;;;;;;;9.14;61.11;101602.31;85674;1334;22496;-75
2022/05/09 00:08:14;;;;;;;;;;;;;;;9.12;61.17;101602.35;85644;1339;22679;-75
2022/05/09 00:10:20;;;;;;;;;;;;;;;9.09;61.37;101607.25;85566;1339;22515;-72
2022/05/09 00:12:27;;;;;;;;;;;;;;;9.07;61.54;101606.07;85560;1337;23111;-73
2022/05/09 00:14:31;;;;;;;;;;;;;;;9.05;61.63;101610.95;85652;1339;22600;-74
2022/05/09 00:16:35;;;;;;;;;;;;;;;9.04;61.89;101612.71;85661;1339;22496;-74
2022/05/09 00:18:43;;;;;;;;;;;;;;;9.02;61.82;101615.17;85545;1339;22487;-74
2022/05/09 00:20:48;;;;;;;;;;;;;;;8.99;62.18;101620.77;85657;1336;23121;-74
2022/05/09 00:22:53;;;;;;;;;;;;;;;8.97;62.26;101622.54;85546;1339;22525;-77
2022/05/09 00:25:01;;;;;;;;;;;;;;;8.92;62.37;101620.16;85661;1339;23192;-73
2022/05/09 00:27:06;;;;;;;;;;;;;;;8.86;62.44;101624.92;85546;1333;22462;-73
2022/05/09 00:29:11;;;;;;;;;;;;;;;8.81;62.70;101627.58;85646;1336;22496;-72
2022/05/09 00:31:19;;;;;;;;;;;;;;;8.79;62.91;101628.14;85546;1340;22529;-73
2022/05/09 00:33:27;;;;;;;;;;;;;;;8.77;63.03;101626.23;85639;1340;22482;-74
2022/05/09 00:35:31;;;;;;;;;;;;;;;8.76;63.18;101633.72;85561;1339;23126;-73
2022/05/09 00:37:36;;;;;;;;;;;;;;;8.75;63.29;101634.61;85641;1338;23043;-72
2022/05/09 00:39:41;;;;;;;;;;;;;;;8.73;63.22;101636.56;85661;1336;22540;-73
2022/05/09 00:41:46;;;;;;;;;;;;;;;8.70;63.42;101636.40;85544;1339;23137;-72
2022/05/09 00:43:50;;;;;;;;;;;;;;;8.67;63.87;101641.65;85661;1334;22520;-76
2022/05/09 00:45:55;;;;;;;;;;;;;;;8.65;63.83;101639.05;85539;1338;22458;-75
2022/05/09 00:48:00;;;;;;;;;;;;;;;8.64;63.88;101640.80;85661;1337;22452;-75
2022/05/09 00:50:05;;;;;;;;;;;;;;;8.62;63.88;101644.30;85550;1339;23050;-75
2022/05/09 00:52:14;;;;;;;;;;;;;;;8.60;63.83;101648.48;85554;1338;22478;-75
2022/05/09 00:54:22;;;;;;;;;;;;;;;8.59;64.07;101651.30;85554;1338;22509;-75
2022/05/09 00:56:29;;;;;;;;;;;;;;;8.60;64.17;101657.73;85538;1339;22495;-74
2022/05/09 00:58:38;;;;;;;;;;;;;;;8.59;64.06;101653.91;85543;1341;22488;-74
2022/05/09 01:00:44;;;;;;;;;;;;;;;8.58;64.19;101655.84;85554;1339;22551;-76
2022/05/09 01:02:51;;;;;;;;;;;;;;;8.55;64.20;101657.41;85552;1333;22623;-75
2022/05/09 01:04:57;;;;;;;;;;;;;;;8.50;64.17;101662.67;85549;1339;22441;-73
2022/05/09 01:07:05;;;;;;;;;;;;;;;8.47;64.36;101663.57;85675;1336;22472;-72
2022/05/09 01:09:13;;;;;;;;;;;;;;;8.44;64.26;101663.61;85561;1339;22466;-74
2022/05/09 01:11:22;;;;;;;;;;;;;;;8.42;64.34;101665.88;85662;1339;23343;-75
2022/05/09 01:13:29;;;;;;;;;;;;;;;8.40;64.54;101669.02;85671;1333;22473;-74
2022/05/09 01:15:36;;;;;;;;;;;;;;;8.36;64.51;101671.63;85623;1339;22566;-72
2022/05/09 01:17:41;;;;;;;;;;;;;;;8.34;64.55;101669.91;85676;1339;22684;-73
2022/05/09 01:19:47;;;;;;;;;;;;;;;8.31;64.67;101671.84;85656;1339;23131;-74
2022/05/09 01:21:55;;;;;;;;;;;;;;;8.28;64.61;101672.39;85654;1338;22529;-75
2022/05/09 01:23:59;;;;;;;;;;;;;;;8.25;64.66;101674.50;85664;1336;22478;-73
2022/05/09 01:26:04;;;;;;;;;;;;;;;8.21;64.78;101675.58;85664;1336;22479;-73
2022/05/09 01:28:10;;;;;;;;;;;;;;;8.17;64.85;101677.16;85665;1339;23325;-74
2022/05/09 01:30:18;;;;;;;;;;;;;;;8.16;65.01;101673.87;85664;1339;22591;-74
2022/05/09 01:32:27;;;;;;;;;;;;;;;8.15;64.95;101677.54;85655;1339;22519;-75
2022/05/09 01:34:32;;;;;;;;;;;;;;;8.13;64.82;101675.98;85658;1337;23057;-75
2022/05/09 01:36:37;;;;;;;;;;;;;;;8.12;65.03;101676.84;85679;1335;23069;-75
2022/05/09 01:38:46;;;;;;;;;;;;;;;8.12;65.14;101676.50;85656;1337;23093;-74
2022/05/09 01:40:51;;;;;;;;;;;;;;;8.12;64.78;101677.89;85653;1336;22484;-74
2022/05/09 01:42:56;;;;;;;;;;;;;;;8.12;64.62;101676.52;85528;1340;22488;-74
2022/05/09 01:45:04;;;;;;;;;;;;;;;8.09;64.51;101677.92;85535;1337;22458;-73
2022/05/09 01:49:35;;;;;;;;;;;;;;;8.06;64.47;101681.59;85525;1333;22672;-73
2022/05/09 01:51:40;;;;;;;;;;;;;;;8.04;64.22;101688.04;85525;1339;23272;-73
2022/05/09 01:53:50;;;;;;;;;;;;;;;8.01;64.48;101686.13;85659;1332;22518;-74
2022/05/09 01:55:58;;;;;;;;;;;;;;;8.00;64.25;101687.36;85686;1337;23211;-75
2022/05/09 01:58:02;;;;;;;;;;;;;;;7.98;64.22;101688.94;85665;1337;22514;-75
2022/05/09 02:00:09;;;;;;;;;;;;;;;7.96;64.22;101690.34;85528;1340;23282;-75
2022/05/09 02:02:15;;;;;;;;;;;;;;;7.94;64.20;101694.70;85463;1338;23169;-76
2022/05/09 02:04:20;;;;;;;;;;;;;;;7.92;64.05;101692.27;85384;1339;23049;-73
2022/05/09 02:06:25;;;;;;;;;;;;;;;7.91;63.96;101692.27;85390;1338;23270;-73
2022/05/09 02:08:30;;;;;;;;;;;;;;;7.89;63.92;101696.64;85535;1338;22530;-73
2022/05/09 02:10:34;;;;;;;;;;;;;;;7.88;64.16;101696.11;85467;1338;22474;-74
2022/05/09 02:12:39;;;;;;;;;;;;;;;7.87;63.77;101694.37;85579;1340;23089;-74
2022/05/09 02:14:44;;;;;;;;;;;;;;;7.85;63.90;101696.66;85659;1337;22457;-73
2022/05/09 02:16:49;;;;;;;;;;;;;;;7.83;63.82;101692.67;85656;1336;22912;-73
2022/05/09 02:18:54;;;;;;;;;;;;;;;7.80;63.87;101701.38;85671;1338;23170;-74
2022/05/09 02:20:58;;;;;;;;;;;;;;;7.78;63.55;101703.98;85674;1339;22455;-74
2022/05/09 02:23:04;;;;;;;;;;;;;;;7.75;63.66;101704.17;85645;1338;23114;-75
2022/05/09 02:25:29;;;;;;;;;;;;;;;7.74;63.62;101710.27;85667;1339;22456;-73
2022/05/09 02:27:36;;;;;;;;;;;;;;;7.70;63.58;101712.55;85666;1339;22684;-73
2022/05/09 02:29:44;;;;;;;;;;;;;;;7.68;63.58;101710.28;85673;1338;22647;-75
2022/05/09 02:31:48;;;;;;;;;;;;;;;7.65;63.88;101715.17;85663;1336;23121;-75
2022/05/09 02:33:53;;;;;;;;;;;;;;;7.62;63.71;101719.34;85663;1336;22496;-74
2022/05/09 02:36:01;;;;;;;;;;;;;;;7.59;63.67;101721.27;85653;1336;22475;-74
2022/05/09 02:38:06;;;;;;;;;;;;;;;7.58;63.70;101724.23;85680;1337;22463;-75
2022/05/09 02:40:11;;;;;;;;;;;;;;;7.57;63.76;101724.23;85519;1340;23116;-73
2022/05/09 02:42:16;;;;;;;;;;;;;;;7.56;63.46;101726.33;85695;1336;23061;-73
2022/05/09 02:44:21;;;;;;;;;;;;;;;7.55;63.59;101722.85;85643;1336;23031;-75
2022/05/09 02:46:28;;;;;;;;;;;;;;;7.52;63.25;101729.27;84981;1336;1003085;-75
2022/05/09 02:48:33;;;;;;;;;;;;;;;7.50;63.42;101729.65;85683;1336;23117;-75
2022/05/09 02:50:41;;;;;;;;;;;;;;;7.48;63.29;101730.52;85693;1339;22501;-73
2022/05/09 02:52:49;;;;;;;;;;;;;;;7.46;63.66;101736.60;85691;1336;23167;-73
2022/05/09 02:54:54;;;;;;;;;;;;;;;7.45;63.42;101735.58;85681;1339;22599;-75
2022/05/09 02:56:58;;;;;;;;;;;;;;;7.43;63.17;101735.92;85692;1336;23092;-75
2022/05/09 02:59:03;;;;;;;;;;;;;;;7.42;63.17;101742.00;85702;1336;22456;-73
2022/05/09 03:01:11;;;;;;;;;;;;;;;7.40;63.13;101742.17;85697;1337;22533;-75
2022/05/09 03:05:39;;;;;;;;;;;;;;;7.34;63.14;101748.63;85704;1339;23168;-74
2022/05/09 03:07:43;;;;;;;;;;;;;;;7.33;63.17;101750.86;85691;1336;23296;-75
2022/05/09 03:09:49;;;;;;;;;;;;;;;7.33;63.09;101751.73;85696;1338;22478;-72
2022/05/09 03:11:54;;;;;;;;;;;;;;;7.32;63.25;101757.64;85705;1336;22571;-73
2022/05/09 03:13:58;;;;;;;;;;;;;;;7.33;63.22;101757.30;85666;1336;23111;-73
2022/05/09 03:16:03;;;;;;;;;;;;;;;7.34;62.79;101755.38;85677;1336;22509;-73
2022/05/09 03:18:09;;;;;;;;;;;;;;;7.34;62.87;101756.60;85676;1336;22618;-73
2022/05/09 03:20:17;;;;;;;;;;;;;;;7.34;62.82;101756.96;85690;1332;23209;-75
2022/05/09 03:22:21;;;;;;;;;;;;;;;7.35;62.83;101759.22;85677;1336;22565;-75
2022/05/09 03:24:26;;;;;;;;;;;;;;;7.34;62.76;101756.61;85609;1338;23261;-74
2022/05/09 03:26:31;;;;;;;;;;;;;;;7.35;62.80;101758.86;85592;1340;23214;-72
2022/05/09 03:28:37;;;;;;;;;;;;;;;7.38;62.57;101765.09;85549;1339;23303;-73
2022/05/09 03:30:45;;;;;;;;;;;;;;;7.39;62.47;101765.98;85673;1339;23074;-75
2022/05/09 03:32:50;;;;;;;;;;;;;;;7.42;62.46;101768.21;85564;1339;23124;-75
2022/05/09 03:34:58;;;;;;;;;;;;;;;7.44;62.60;101773.77;85678;1332;22520;-75
2022/05/09 03:37:06;;;;;;;;;;;;;;;7.48;62.47;101774.96;85541;1341;23046;-75
2022/05/09 03:39:11;;;;;;;;;;;;;;;7.58;62.36;101773.55;85557;1339;22549;-74
2022/05/09 03:41:16;;;;;;;;;;;;;;;7.96;62.44;101777.04;85539;1336;22528;-75
2022/05/09 03:43:20;;;;;;;;;;;;;;;8.45;62.09;101780.96;85680;1336;23107;-75
2022/05/09 03:45:25;;;;;;;;;;;;;;;8.99;61.65;101784.73;85546;1337;22506;-75
2022/05/09 03:47:30;;;;;;;;;;;;;;;9.69;61.13;101784.18;85548;1338;22517;-74
2022/05/09 03:49:37;;;;;;;;;;;;;;;10.46;60.28;101785.10;85547;1340;22470;-74
2022/05/09 03:51:45;;;;;;;;;;;;;;;11.16;58.42;101788.84;85668;1336;23094;-74
2022/05/09 03:53:52;;;;;;;;;;;;;;;11.81;57.47;101785.70;85683;1336;23160;-74
2022/05/09 03:55:57;;;;;;;;;;;;;;;12.47;55.60;101786.73;85664;1339;23199;-75
2022/05/09 03:58:04;;;;;;;;;;;;;;;13.12;53.54;101790.40;85673;1336;23184;-75
2022/05/09 04:00:14;;;;;;;;;;;;;;;13.68;51.72;101789.95;85551;1339;23196;-73
2022/05/09 04:02:19;;;;;;;;;;;;;;;14.16;49.59;101790.81;85462;1338;22566;-73
2022/05/09 04:04:24;;;;;;;;;;;;;;;14.61;49.09;101791.03;85544;1339;22515;-73
2022/05/09 04:06:28;;;;;;;;;;;;;;;15.09;47.49;101796.29;85552;1339;22477;-73
2022/05/09 04:08:33;;;;;;;;;;;;;;;15.43;45.11;101792.48;85556;1337;22647;-73
2022/05/09 04:10:40;;;;;;;;;;;;;;;15.38;45.06;101792.46;85567;1341;22499;-73
2022/05/09 04:12:44;;;;;;;;;;;;;;;15.04;45.04;101794.89;85498;1339;23083;-73
2022/05/09 04:17:14;;;;;;;;;;;;;;;14.01;45.19;101801.29;85682;1336;22473;-73
2022/05/09 04:19:19;;;;;;;;;;;;;;;13.55;45.43;101804.36;85680;1336;22469;-75
2022/05/09 04:21:24;;;;;;;;;;;;;;;13.10;45.92;101803.94;85648;1336;22520;-75
2022/05/09 04:23:31;;;;;;;;;;;;;;;12.74;46.52;101804.30;85690;1340;23085;-76
2022/05/09 04:25:36;;;;;;;;;;;;;;;12.40;46.70;101803.87;85682;1336;23081;-75
2022/05/09 04:27:41;;;;;;;;;;;;;;;12.10;47.43;101808.21;85690;1336;22600;-75
2022/05/09 04:29:47;;;;;;;;;;;;;;;11.88;47.92;101813.73;85679;1336;22496;-74
2022/05/09 04:31:51;;;;;;;;;;;;;;;11.67;48.11;101817.44;85532;1339;22540;-73
2022/05/09 04:33:56;;;;;;;;;;;;;;;11.48;48.51;101819.20;85687;1340;22611;-73
2022/05/09 04:36:01;;;;;;;;;;;;;;;11.36;48.90;101821.52;85671;1336;23050;-73
2022/05/09 04:38:10;;;;;;;;;;;;;;;11.25;49.09;101823.45;85613;1336;22491;-73
2022/05/09 04:40:15;;;;;;;;;;;;;;;11.19;49.26;101822.16;85664;1336;23068;-75
2022/05/09 04:42:20;;;;;;;;;;;;;;;11.17;49.22;101821.16;85667;1340;22503;-75
2022/05/09 04:44:25;;;;;;;;;;;;;;;11.63;50.03;101822.58;85693;1340;23446;-75
2022/05/09 04:46:30;;;;;;;;;;;;;;;12.59;49.57;101816.21;85668;1336;23108;-75
2022/05/09 04:48:40;;;;;;;;;;;;;;;13.60;47.09;101820.14;85686;1340;22488;-75
2022/05/09 04:50:44;;;;;;;;;;;;;;;14.55;45.48;101817.52;85527;1339;22556;-75
2022/05/09 04:52:49;;;;;;;;;;;;;;;15.43;42.93;101816.75;85676;1340;22575;-74
2022/05/09 04:54:54;;;;;;;;;;;;;;;16.12;42.34;101814.58;85666;1340;23138;-75
2022/05/09 04:56:58;;;;;;;;;;;;;;;16.67;39.71;101818.26;85682;1336;23194;-76
2022/05/09 04:59:06;;;;;;;;;;;;;;;17.16;39.57;101818.02;85665;1336;22469;-73
2022/05/09 05:01:10;;;;;;;;;;;;;;;17.85;39.08;101818.54;85667;1339;22478;-73
2022/05/09 05:03:15;;;;;;;;;;;;;;;18.68;38.22;101821.00;85521;1337;23158;-72
2022/05/09 05:05:20;;;;;;;;;;;;;;;19.38;35.63;101826.71;84945;1334;1012148;-73
2022/05/09 05:07:24;;;;;;;;;;;;;;;19.76;34.29;101821.35;85663;1337;22517;-72
2022/05/09 05:09:30;;;;;;;;;;;;;;;20.00;33.05;101826.64;85671;1336;23034;-78
2022/05/09 05:11:35;;;;;;;;;;;;;;;20.30;32.81;101822.34;85671;1336;22643;-76
2022/05/09 05:13:40;;;;;;;;;;;;;;;20.62;32.76;101828.86;85675;1336;22543;-76
2022/05/09 05:15:44;;;;;;;;;;;;;;;21.01;32.48;101825.70;85664;1340;23048;-74
2022/05/09 05:17:49;;;;;;;;;;;;;;;21.52;31.28;101827.14;85664;1336;22472;-75
2022/05/09 05:19:56;;;;;;;;;;;;;;;21.75;30.31;101830.37;85643;1340;22503;-73
2022/05/09 05:22:01;;;;;;;;;;;;;;;22.03;30.96;101827.73;85642;1337;22503;-73
2022/05/09 05:24:07;;;;;;;;;;;;;;;22.42;29.08;101828.13;85645;1340;22483;-76
2022/05/09 05:26:13;;;;;;;;;;;;;;;22.65;29.41;101831.06;85663;1336;22513;-78
2022/05/09 05:28:17;;;;;;;;;;;;;;;23.00;28.68;101829.79;85640;1336;23244;-80
2022/05/09 05:30:22;;;;;;;;;;;;;;;23.20;27.73;101831.13;85644;1340;23055;-73
2022/05/09 05:32:28;;;;;;;;;;;;;;;23.19;27.66;101836.72;85646;1337;22944;-72
2022/05/09 05:34:34;;;;;;;;;;;;;;;23.46;26.88;101840.42;85628;1336;23182;-73
2022/05/09 05:36:39;;;;;;;;;;;;;;;23.36;26.32;101842.35;85632;1333;22506;-73
2022/05/09 05:38:43;;;;;;;;;;;;;;;23.29;26.06;101841.52;85661;1336;23154;-74
2022/05/09 05:40:48;;;;;;;;;;;;;;;23.24;27.18;101841.92;85650;1340;23170;-72
2022/05/09 05:42:53;;;;;;;;;;;;;;;23.73;27.01;101844.57;85475;1341;22611;-74
2022/05/09 05:44:57;;;;;;;;;;;;;;;24.36;26.92;101840.83;85651;1336;23169;-77
2022/05/09 05:47:07;;;;;;;;;;;;;;;25.09;24.74;101846.97;85524;1339;23632;-77
2022/05/09 05:49:11;;;;;;;;;;;;;;;25.39;24.95;101846.48;85654;1336;23028;-77
2022/05/09 05:51:19;;;;;;;;;;;;;;;25.78;24.40;101843.33;85643;1334;22494;-77
2022/05/09 05:53:23;;;;;;;;;;;;;;;25.93;23.68;101845.34;85650;1336;22460;-77
2022/05/09 05:55:28;;;;;;;;;;;;;;;26.00;23.52;101847.69;85642;1337;23164;-73
2022/05/09 05:57:34;;;;;;;;;;;;;;;26.31;23.66;101848.19;85524;1339;22484;-73
2022/05/09 05:59:41;;;;;;;;;;;;;;;26.62;22.56;101847.13;85545;1339;22516;-73
2022/05/09 06:01:46;;;;;;;;;;;;;;;26.61;21.73;101851.99;85639;1339;23175;-74
2022/05/09 06:03:51;;;;;;;;;;;;;;;26.57;22.17;101855.27;85540;1339;22498;-77
2022/05/09 06:05:58;;;;;;;;;;;;;;;26.61;21.90;101855.27;85655;1338;22478;-76
2022/05/09 06:08:03;;;;;;;;;;;;;;;26.84;22.07;101854.74;85538;1339;22463;-78
2022/05/09 06:10:11;;;;;;;;;;;;;;;26.81;21.56;101850.89;85652;1336;22458;-76
2022/05/09 06:12:17;;;;;;;;;;;;;;;26.93;21.70;101853.31;85521;1337;22463;-77
2022/05/09 06:14:22;;;;;;;;;;;;;;;27.18;21.49;101855.85;85652;1336;22523;-74
2022/05/09 06:16:27;;;;;;;;;;;;;;;27.50;21.48;101857.78;85512;1336;23201;-74
2022/05/09 06:18:31;;;;;;;;;;;;;;;27.53;20.75;101861.45;85653;1340;22476;-74
2022/05/09 06:20:37;;;;;;;;;;;;;;;27.64;20.95;101862.51;85666;1338;22983;-76
2022/05/09 06:22:42;;;;;;;;;;;;;;;27.98;20.80;101864.04;85670;1336;22487;-74
2022/05/09 06:24:47;;;;;;;;;;;;;;;28.30;20.62;101864.27;85684;1339;23315;-76
2022/05/09 06:26:51;;;;;;;;;;;;;;;28.55;20.33;101861.65;85680;1339;22977;-73
2022/05/09 06:28:56;;;;;;;;;;;;;;;28.76;20.10;101861.28;85660;1337;23232;-77
2022/05/09 06:31:01;;;;;;;;;;;;;;;28.87;19.35;101868.21;85667;1338;22482;-79
2022/05/09 06:33:06;;;;;;;;;;;;;;;28.97;19.07;101868.77;85664;1337;22487;-79
2022/05/09 06:35:14;;;;;;;;;;;;;;;28.99;18.55;101867.38;85673;1336;22464;-71
2022/05/09 06:37:19;;;;;;;;;;;;;;;28.96;19.34;101872.23;85663;1336;23018;-71
2022/05/09 06:39:24;;;;;;;;;;;;;;;29.23;19.20;101871.53;85663;1338;22448;-71
2022/05/09 06:41:29;;;;;;;;;;;;;;;29.59;18.65;101875.92;85663;1336;23203;-71
2022/05/09 06:43:33;;;;;;;;;;;;;;;29.82;18.60;101877.11;85659;1339;22446;-71
2022/05/09 06:45:38;;;;;;;;;;;;;;;30.16;18.09;101875.06;85674;1336;22618;-72
2022/05/09 06:47:46;;;;;;;;;;;;;;;30.29;17.30;101875.86;85487;1339;22550;-72
2022/05/09 06:49:51;;;;;;;;;;;;;;;30.16;17.63;101878.34;85662;1332;22521;-73
2022/05/09 06:51:56;;;;;;;;;;;;;;;30.18;17.62;101874.58;85662;1336;22504;-72
2022/05/09 06:54:02;;;;;;;;;;;;;;;30.21;17.81;101874.27;85690;1339;23159;-72
2022/05/09 06:56:07;;;;;;;;;;;;;;;30.48;17.73;101876.45;85667;1336;23115;-72
2022/05/09 06:58:16;;;;;;;;;;;;;;;30.71;17.07;101875.08;85683;1336;22471;-71
2022/05/09 07:00:22;;;;;;;;;;;;;;;30.95;17.14;101876.14;85656;1336;23179;-74
2022/05/09 07:02:26;;;;;;;;;;;;;;;31.08;17.34;101877.54;85678;1339;22699;-73
2022/05/09 07:04:34;;;;;;;;;;;;;;;31.42;17.17;101881.77;85675;1337;23088;-77
2022/05/09 07:06:39;;;;;;;;;;;;;;;31.69;16.03;101884.05;85672;1336;23163;-77
2022/05/09 07:08:44;;;;;;;;;;;;;;;31.70;16.56;101882.84;85681;1339;23284;-76
2022/05/09 07:10:49;;;;;;;;;;;;;;;31.91;15.93;101883.24;85407;1339;23053;-77
2022/05/09 07:12:54;;;;;;;;;;;;;;;31.77;16.01;101881.41;85456;1339;23167;-77
2022/05/09 07:15:05;;;;;;;;;;;;;;;31.54;16.24;101887.36;85684;1336;22459;-73
2022/05/09 07:17:10;;;;;;;;;;;;;;;31.54;16.24;101888.11;85572;1338;22596;-73
2022/05/09 07:19:16;;;;;;;;;;;;;;;31.65;16.19;101887.02;85668;1336;23127;-73
2022/05/09 07:21:21;;;;;;;;;;;;;;;31.78;15.41;101888.16;85656;1339;22511;-73
2022/05/09 07:23:26;;;;;;;;;;;;;;;31.57;15.73;101891.98;85671;1336;22487;-73
2022/05/09 07:25:33;;;;;;;;;;;;;;;31.41;15.32;101897.65;85666;1337;23042;-73
2022/05/09 07:27:39;;;;;;;;;;;;;;;31.18;15.29;101897.36;85647;1339;23192;-73
2022/05/09 07:29:47;;;;;;;;;;;;;;;31.07;15.67;101890.03;85690;1336;22532;-77
2022/05/09 07:31:55;;;;;;;;;;;;;;;31.23;15.74;101888.63;85672;1336;23202;-78
2022/05/09 07:34:01;;;;;;;;;;;;;;;31.28;15.64;101889.15;85676;1339;23142;-77
2022/05/09 07:36:09;;;;;;;;;;;;;;;31.37;15.44;101887.05;85640;1336;22468;-78
2022/05/09 07:38:14;;;;;;;;;;;;;;;31.11;15.34;101893.05;85667;1336;23040;-78
2022/05/09 07:40:26;;;;;;;;;;;;;;;30.91;15.24;101894.38;85672;1332;22476;-82
2022/05/09 07:42:34;;;;;;;;;;;;;;;30.73;15.51;101895.80;85693;1332;22520;-82
2022/05/09 07:44:38;;;;;;;;;;;;;;;30.60;15.50;101899.58;85662;1336;23042;-78
2022/05/09 07:46:44;;;;;;;;;;;;;;;30.56;15.45;101897.27;85649;1336;23427;-75
2022/05/09 07:48:52;;;;;;;;;;;;;;;30.33;15.53;101895.59;85647;1337;22695;-72
2022/05/09 07:50:59;;;;;;;;;;;;;;;30.55;15.90;101894.21;85561;1339;23021;-72
2022/05/09 07:53:08;;;;;;;;;;;;;;;30.83;15.51;101889.56;85588;1336;23179;-72
2022/05/09 07:55:14;;;;;;;;;;;;;;;30.97;15.76;101892.67;85648;1336;22565;-80
2022/05/09 07:57:22;;;;;;;;;;;;;;;31.18;15.73;101894.88;85575;1333;22602;-80
2022/05/09 07:59:30;;;;;;;;;;;;;;;31.43;14.98;101888.17;85682;1340;22588;-73
2022/05/09 08:01:34;;;;;;;;;;;;;;;31.51;15.23;101887.41;85651;1337;22602;-73
2022/05/09 08:03:42;;;;;;;;;;;;;;;31.66;15.08;101884.61;85664;1336;22443;-73
2022/05/09 08:05:48;;;;;;;;;;;;;;;31.89;14.94;101890.15;85637;1336;22503;-80
2022/05/09 08:07:53;;;;;;;;;;;;;;;32.19;14.56;101891.77;85641;1339;23124;-77
2022/05/09 08:12:21;;;;;;;;;;;;;;;32.56;13.99;101887.29;85338;1340;22504;-80
2022/05/09 08:14:29;;;;;;;;;;;;;;;32.59;13.62;101884.83;85676;1337;23159;-72
2022/05/09 08:16:34;;;;;;;;;;;;;;;32.26;14.04;101881.85;85637;1336;22610;-73
2022/05/09 08:18:42;;;;;;;;;;;;;;;32.32;14.30;101884.79;85651;1336;22523;-72
2022/05/09 08:20:48;;;;;;;;;;;;;;;32.37;14.09;101888.08;85572;1339;22534;-73
2022/05/09 08:23:00;;;;;;;;;;;;;;;32.39;14.03;101886.08;85642;1337;23186;-72
2022/05/09 08:25:10;;;;;;;;;;;;;;;32.42;13.82;101889.92;85570;1338;23060;-80
2022/05/09 08:27:15;;;;;;;;;;;;;;;32.26;13.65;101889.77;85584;1338;22467;-80
2022/05/09 08:29:20;;;;;;;;;;;;;;;32.15;13.57;101889.93;85577;1339;23151;-73
2022/05/09 08:31:25;;;;;;;;;;;;;;;32.01;14.01;101891.52;85625;1336;22501;-72
2022/05/09 08:33:30;;;;;;;;;;;;;;;32.00;14.21;101883.87;85575;1341;22427;-72
2022/05/09 08:35:35;;;;;;;;;;;;;;;32.10;14.14;101882.98;85648;1336;22587;-72
2022/05/09 08:37:39;;;;;;;;;;;;;;;32.10;13.56;101884.64;85571;1339;23202;-73
2022/05/09 08:39:47;;;;;;;;;;;;;;;31.92;13.59;101888.23;85649;1336;22532;-72
2022/05/09 08:41:59;;;;;;;;;;;;;;;31.84;13.38;101895.17;85555;1339;22493;-73
2022/05/09 08:44:17;;;;;;;;;;;;;;;31.72;13.96;101893.13;85656;1339;22611;-73
2022/05/09 08:46:35;;;;;;;;;;;;;;;31.87;13.97;101885.23;85563;1339;23158;-73
2022/05/09 08:48:59;;;;;;;;;;;;;;;32.04;13.53;101884.70;85639;1336;23069;-75
2022/05/09 08:51:14;;;;;;;;;;;;;;;32.05;14.09;101882.84;85544;1340;22483;-79
2022/05/09 08:53:23;;;;;;;;;;;;;;;32.07;13.94;101886.95;85652;1336;23127;-80
2022/05/09 08:55:32;;;;;;;;;;;;;;;31.92;13.94;101885.48;85433;1341;22458;-79
2022/05/09 08:57:41;;;;;;;;;;;;;;;31.83;14.22;101882.73;85641;1339;22482;-79
2022/05/09 08:59:48;;;;;;;;;;;;;;;31.98;14.20;101884.41;85632;1337;23182;-72
2022/05/09 09:02:01;;;;;;;;;;;;;;;32.09;13.71;101884.05;85557;1337;23109;-79
2022/05/09 09:04:19;;;;;;;;;;;;;;;32.03;13.85;101879.93;85637;1339;22587;-79
2022/05/09 09:06:41;;;;;;;;;;;;;;;31.99;13.73;101885.80;85464;1339;22468;-78
2022/05/09 09:08:58;;;;;;;;;;;;;;;31.72;13.84;101880.13;85536;1339;22595;-73
2022/05/09 09:11:10;;;;;;;;;;;;;;;31.70;14.46;101882.89;85649;1336;22445;-74
2022/05/09 09:13:34;;;;;;;;;;;;;;;31.75;14.60;101882.27;85629;1336;22475;-80
2022/05/09 09:15:46;;;;;;;;;;;;;;;31.59;14.18;101881.81;85539;1338;22513;-72
2022/05/09 09:18:08;;;;;;;;;;;;;;;31.37;13.60;101885.16;85644;1339;23267;-72
2022/05/09 09:20:16;;;;;;;;;;;;;;;30.75;13.45;101890.02;85629;1336;23224;-80
2022/05/09 09:22:30;;;;;;;;;;;;;;;30.18;13.97;101892.70;85629;1336;23103;-80
2022/05/09 09:24:48;;;;;;;;;;;;;;;29.64;14.37;101887.05;85560;1340;22546;-79
2022/05/09 09:27:00;;;;;;;;;;;;;;;29.08;14.84;101890.02;85551;1339;22596;-80
2022/05/09 09:29:06;;;;;;;;;;;;;;;28.56;15.03;101884.84;85659;1335;23021;-73
2022/05/09 09:31:11;;;;;;;;;;;;;;;28.12;15.64;101892.88;85651;1339;22487;-72
2022/05/09 09:33:19;;;;;;;;;;;;;;;27.75;15.65;101895.44;85545;1339;22483;-71
2022/05/09 09:35:33;;;;;;;;;;;;;;;27.29;16.32;101889.20;85663;1336;23228;-79
2022/05/09 09:37:42;;;;;;;;;;;;;;;26.95;16.48;101899.88;85669;1336;23007;-79
2022/05/09 09:39:50;;;;;;;;;;;;;;;26.55;16.52;101893.30;85569;1340;23102;-72
2022/05/09 09:41:55;;;;;;;;;;;;;;;26.22;16.47;101893.96;85661;1333;22529;-72
2022/05/09 09:44:05;;;;;;;;;;;;;;;25.68;17.03;101890.35;85646;1336;22658;-79
2022/05/09 09:46:09;;;;;;;;;;;;;;;25.30;17.02;101893.48;85648;1336;22482;-78
2022/05/09 09:48:18;;;;;;;;;;;;;;;25.02;17.22;101890.17;85678;1336;22539;-79
2022/05/09 09:50:25;;;;;;;;;;;;;;;24.88;17.30;101887.33;85668;1339;23107;-73
2022/05/09 09:52:32;;;;;;;;;;;;;;;24.71;17.42;101887.14;85455;1339;22527;-73
2022/05/09 09:54:36;;;;;;;;;;;;;;;24.42;17.71;101889.61;85511;1337;23098;-73
2022/05/09 09:56:42;;;;;;;;;;;;;;;24.20;18.20;101888.00;85651;1336;22454;-79
2022/05/09 09:58:47;;;;;;;;;;;;;;;24.10;18.24;101889.42;85588;1338;22824;-71
2022/05/09 10:01:03;;;;;;;;;;;;;;;23.88;18.45;101888.45;85674;1336;23027;-72
2022/05/09 10:05:37;;;;;;;;;;;;;;;23.52;19.78;101882.52;85739;1322;22613;-80
2022/05/09 10:07:44;;;;;;;;;;;;;;;23.57;19.63;101885.41;85676;1336;22484;-79
2022/05/09 10:10:05;;;;;;;;;;;;;;;23.51;19.19;101891.17;85682;1336;23199;-77
2022/05/09 10:12:18;;;;;;;;;;;;;;;23.23;19.34;101884.36;85670;1336;22567;-78
2022/05/09 10:14:35;;;;;;;;;;;;;;;23.14;19.69;101873.69;85680;1339;22637;-72
2022/05/09 10:16:45;;;;;;;;;;;;;;;23.04;19.89;101880.60;85643;1336;22480;-71
2022/05/09 10:18:53;;;;;;;;;;;;;;;22.98;19.92;101882.08;85558;1337;22440;-71
2022/05/09 10:21:12;;;;;;;;;;;;;;;22.80;19.71;101885.23;85749;1337;22547;-80
2022/05/09 10:25:56;;;;;;;;;;;;;;;22.70;20.25;101871.09;85777;1335;22511;-80
2022/05/09 10:28:06;;;;;;;;;;;;;;;22.81;20.36;101868.98;85771;1336;22520;-81
2022/05/09 10:30:30;;;;;;;;;;;;;;;22.71;19.71;101868.75;85749;1337;23145;-72
2022/05/09 10:32:40;;;;;;;;;;;;;;;22.51;19.77;101870.21;85740;1336;23098;-72
2022/05/09 10:34:47;;;;;;;;;;;;;;;22.36;20.90;101863.67;85625;1336;22524;-80
2022/05/09 10:36:52;;;;;;;;;;;;;;;22.33;20.47;101865.84;85765;1338;22535;-80
2022/05/09 10:39:04;;;;;;;;;;;;;;;22.25;20.60;101866.55;85751;1337;22590;-80
2022/05/09 10:41:15;;;;;;;;;;;;;;;22.21;20.43;101863.60;85762;1334;22486;-81
2022/05/09 10:43:26;;;;;;;;;;;;;;;22.07;20.63;101860.72;85764;1337;23134;-80
2022/05/09 10:45:34;;;;;;;;;;;;;;;21.83;20.22;101866.46;85777;1336;22500;-80
2022/05/09 10:47:45;;;;;;;;;;;;;;;21.63;20.83;101862.34;85776;1336;22463;-82
2022/05/09 10:50:00;;;;;;;;;;;;;;;21.62;21.03;101858.51;85768;1335;23128;-72
2022/05/09 10:52:14;;;;;;;;;;;;;;;21.50;20.84;101862.74;85740;1337;22494;-71
2022/05/09 10:54:25;;;;;;;;;;;;;;;21.30;20.65;101856.70;85758;1332;22463;-78
2022/05/09 10:56:34;;;;;;;;;;;;;;;21.19;21.01;101859.49;85763;1335;23090;-82
2022/05/09 10:58:43;;;;;;;;;;;;;;;21.21;21.26;101854.73;85747;1336;22456;-81
2022/05/09 11:00:50;;;;;;;;;;;;;;;21.27;21.32;101846.90;85787;1335;22471;-80
2022/05/09 11:02:59;;;;;;;;;;;;;;;21.34;21.21;101846.35;85772;1338;23052;-84
2022/05/09 11:05:04;;;;;;;;;;;;;;;21.37;21.45;101847.58;85777;1338;23188;-80
2022/05/09 11:07:13;;;;;;;;;;;;;;;21.35;20.60;101850.55;85610;1337;23152;-82
2022/05/09 11:09:26;;;;;;;;;;;;;;;21.26;20.54;101848.57;85741;1336;22494;-83
2022/05/09 11:11:38;;;;;;;;;;;;;;;21.13;20.37;101850.23;85744;1333;23068;-71